createdAt,value
2018-09-25T00:01:34.607Z,101719.12
2018-09-25T00:04:08.937Z,101717.62
2018-09-25T00:06:43.242Z,101717.25
2018-09-25T00:09:17.736Z,101716.31
2018-09-25T00:11:52.551Z,101722.53
2018-09-25T00:14:27.056Z,101725.11
2018-09-25T00:17:01.495Z,101723.81
2018-09-25T00:19:35.772Z,101724.51
2018-09-25T00:22:10.022Z,101726.31
2018-09-25T00:24:44.430Z,101727.90
2018-09-25T00:27:18.765Z,101729.52
2018-09-25T00:29:53.266Z,101728.02
2018-09-25T00:32:27.568Z,101728.45
2018-09-25T00:35:01.937Z,101734.91
2018-09-25T00:37:36.369Z,101738.06
2018-09-25T00:40:10.633Z,101738.59
2018-09-25T00:42:45.151Z,101741.25
2018-09-25T00:45:19.492Z,101742.55
2018-09-25T00:47:53.867Z,101745.59
2018-09-25T00:50:28.357Z,101750.03
2018-09-25T00:53:02.663Z,101748.81
2018-09-25T00:55:37.093Z,101748.37
2018-09-25T00:58:11.477Z,101757.79
2018-09-25T01:00:45.835Z,101756.37
2018-09-25T01:03:20.347Z,101763.08
2018-09-25T01:05:54.777Z,101761.16
2018-09-25T01:08:29.298Z,101761.70
2018-09-25T01:11:03.967Z,101763.86
2018-09-25T01:13:38.438Z,101769.16
2018-09-25T01:16:12.799Z,101766.23
2018-09-25T01:18:47.289Z,101765.97
2018-09-25T01:21:21.614Z,101761.27
2018-09-25T01:23:55.944Z,101768.22
2018-09-25T01:26:30.330Z,101764.84
2018-09-25T01:29:04.718Z,101762.35
2018-09-25T01:31:39.104Z,101760.14
2018-09-25T01:34:13.577Z,101759.94
2018-09-25T01:36:48.027Z,101757.81
2018-09-25T01:39:22.452Z,101763.50
2018-09-25T01:41:56.900Z,101758.11
2018-09-25T01:44:31.308Z,101757.91
2018-09-25T01:47:05.782Z,101758.08
2018-09-25T01:49:40.361Z,101759.59
2018-09-25T01:52:14.788Z,101755.81
2018-09-25T01:54:49.226Z,101767.59
2018-09-25T01:57:23.712Z,101763.91
2018-09-25T01:59:58.112Z,101769.66
2018-09-25T02:02:32.368Z,101771.69
2018-09-25T02:05:06.822Z,101776.01
2018-09-25T02:07:41.197Z,101783.28
2018-09-25T02:10:15.584Z,101777.44
2018-09-25T02:12:49.934Z,101779.48
2018-09-25T02:15:24.354Z,101782.25
2018-09-25T02:17:58.700Z,101781.64
2018-09-25T02:20:33.306Z,101792.19
2018-09-25T02:23:07.698Z,101795.79
2018-09-25T02:25:42.008Z,101800.69
2018-09-25T02:28:16.299Z,101799.27
2018-09-25T02:30:50.788Z,101797.84
2018-09-25T02:33:25.066Z,101801.41
2018-09-25T02:35:59.422Z,101805.59
2018-09-25T02:38:33.885Z,101798.12
2018-09-25T02:41:08.264Z,101804.97
2018-09-25T02:43:42.726Z,101807.44
2018-09-25T02:46:17.118Z,101809.91
2018-09-25T02:48:51.496Z,101816.37
2018-09-25T02:51:26.017Z,101814.20
2018-09-25T02:54:00.463Z,101814.00
2018-09-25T02:56:34.892Z,101821.34
2018-09-25T02:59:09.132Z,101820.14
2018-09-25T03:01:43.544Z,101825.45
2018-09-25T03:04:18.057Z,101822.28
2018-09-25T03:06:52.477Z,101825.45
2018-09-25T03:09:26.829Z,101824.94
2018-09-25T03:12:01.208Z,101828.43
2018-09-25T03:14:35.574Z,101830.48
2018-09-25T03:17:09.876Z,101835.48
2018-09-25T03:19:44.329Z,101831.98
2018-09-25T03:22:18.953Z,101835.27
2018-09-25T03:24:53.277Z,101838.25
2018-09-25T03:27:27.858Z,101838.75
2018-09-25T03:30:02.099Z,101841.09
2018-09-25T03:32:36.374Z,101836.27
2018-09-25T03:35:10.941Z,101840.27
2018-09-25T03:37:45.446Z,101849.89
2018-09-25T03:40:19.824Z,101853.26
2018-09-25T03:42:54.187Z,101854.89
2018-09-25T03:45:28.497Z,101863.55
2018-09-25T03:48:02.888Z,101862.12
2018-09-25T03:50:37.232Z,101864.48
2018-09-25T03:53:11.614Z,101864.37
2018-09-25T03:55:45.947Z,101871.83
2018-09-25T03:58:20.381Z,101875.52
2018-09-25T04:00:54.836Z,101872.50
2018-09-25T04:03:29.221Z,101871.26
2018-09-25T04:06:03.562Z,101875.24
2018-09-25T04:08:37.870Z,101879.31
2018-09-25T04:11:12.568Z,101882.28
2018-09-25T04:13:46.858Z,101891.67
2018-09-25T04:16:21.239Z,101881.14
2018-09-25T04:18:55.505Z,101892.19
2018-09-25T04:21:29.849Z,101887.70
2018-09-25T04:26:51.410Z,101902.48
2018-09-25T04:29:25.739Z,101905.12
2018-09-25T04:32:00.068Z,101908.16
2018-09-25T04:34:34.542Z,101913.34
2018-09-25T04:37:08.938Z,101917.19
2018-09-25T04:39:43.238Z,101919.00
2018-09-25T04:42:17.590Z,101929.56
2018-09-25T04:44:52.128Z,101935.34
2018-09-25T04:47:26.534Z,101936.02
2018-09-25T04:50:00.823Z,101934.39
2018-09-25T04:52:35.285Z,101951.30
2018-09-25T04:55:09.628Z,101945.66
2018-09-25T04:57:44.062Z,101947.83
2018-09-25T05:00:18.601Z,101957.02
2018-09-25T05:02:53.057Z,101957.09
2018-09-25T05:05:27.548Z,101957.08
2018-09-25T05:08:01.937Z,101961.98
2018-09-25T05:10:36.322Z,101961.66
2018-09-25T05:13:18.184Z,101964.54
2018-09-25T05:15:52.545Z,101967.91
2018-09-25T05:18:27.605Z,101963.23
2018-09-25T05:21:02.137Z,101960.90
2018-09-25T05:23:36.647Z,101966.24
2018-09-25T05:26:10.940Z,101962.66
2018-09-25T05:28:45.370Z,101974.33
2018-09-25T05:31:19.686Z,101975.33
2018-09-25T05:33:54.120Z,101978.32
2018-09-25T05:36:28.521Z,101986.55
2018-09-25T05:39:02.961Z,101986.09
2018-09-25T05:41:37.419Z,101987.33
2018-09-25T05:44:11.767Z,101992.96
2018-09-25T05:46:46.137Z,101992.06
2018-09-25T05:49:20.612Z,101988.28
2018-09-25T05:51:55.018Z,102005.80
2018-09-25T05:54:29.344Z,102002.19
2018-09-25T05:57:03.822Z,102001.77
2018-09-25T05:59:38.121Z,102003.96
2018-09-25T06:02:12.507Z,102001.13
2018-09-25T06:04:46.865Z,102004.78
2018-09-25T06:07:21.234Z,102010.79
2018-09-25T06:09:55.486Z,102012.09
2018-09-25T06:12:29.818Z,102018.07
2018-09-25T06:15:04.328Z,102018.10
2018-09-25T06:17:38.658Z,102029.59
2018-09-25T06:20:12.977Z,102033.22
2018-09-25T06:22:47.468Z,102031.95
2018-09-25T06:25:21.741Z,102036.08
2018-09-25T06:27:56.230Z,102043.18
2018-09-25T06:30:30.549Z,102050.67
2018-09-25T06:33:05.005Z,102046.28
2018-09-25T06:35:39.398Z,102051.08
2018-09-25T06:38:13.766Z,102045.81
2018-09-25T06:40:48.192Z,102064.91
2018-09-25T06:43:22.564Z,102055.64
2018-09-25T06:45:56.985Z,102063.50
2018-09-25T06:48:31.519Z,102059.48
2018-09-25T06:51:05.781Z,102065.13
2018-09-25T06:53:40.241Z,102067.50
2018-09-25T06:56:14.660Z,102072.38
2018-09-25T06:58:48.959Z,102077.19
2018-09-25T07:01:23.530Z,102082.10
2018-09-25T07:03:57.966Z,102086.33
2018-09-25T07:06:32.425Z,102081.89
2018-09-25T07:09:06.694Z,102092.05
2018-09-25T07:11:41.140Z,102094.08
2018-09-25T07:14:15.380Z,102095.88
2018-09-25T07:16:49.694Z,102102.97
2018-09-25T07:19:24.000Z,102102.05
2018-09-25T07:21:58.457Z,102099.94
2018-09-25T07:24:32.812Z,102098.95
2018-09-25T07:27:07.228Z,102109.17
2018-09-25T07:29:41.527Z,102117.05
2018-09-25T07:32:15.768Z,102111.13
2018-09-25T07:34:50.210Z,102123.41
2018-09-25T07:37:24.463Z,102127.75
2018-09-25T07:39:58.790Z,102126.27
2018-09-25T07:42:33.205Z,102127.34
2018-09-25T07:45:07.451Z,102132.20
2018-09-25T07:47:41.733Z,102134.31
2018-09-25T07:50:16.088Z,102133.20
2018-09-25T07:52:50.471Z,102133.48
2018-09-25T07:55:24.955Z,102131.02
2018-09-25T07:57:59.240Z,102126.33
2018-09-25T08:00:34.145Z,102135.11
2018-09-25T08:03:08.638Z,102129.92
2018-09-25T08:05:42.988Z,102137.75
2018-09-25T08:08:17.494Z,102150.16
2018-09-25T08:10:51.879Z,102149.31
2018-09-25T08:13:26.294Z,102140.48
2018-09-25T08:16:00.569Z,102146.59
2018-09-25T08:18:35.193Z,102149.30
2018-09-25T08:21:09.554Z,102148.55
2018-09-25T08:23:43.851Z,102157.55
2018-09-25T08:26:18.287Z,102158.59
2018-09-25T08:28:52.735Z,102157.96
2018-09-25T08:31:26.988Z,102152.53
2018-09-25T08:34:01.469Z,102159.67
2018-09-25T08:36:35.729Z,102157.45
2018-09-25T08:39:14.014Z,102163.34
2018-09-25T08:41:48.760Z,102161.23
2018-09-25T08:44:23.036Z,102161.09
2018-09-25T08:46:57.438Z,102165.37
2018-09-25T08:49:31.748Z,102164.97
2018-09-25T08:52:06.093Z,102165.27
2018-09-25T08:54:40.610Z,102161.32
2018-09-25T08:57:15.028Z,102159.49
2018-09-25T08:59:49.547Z,102168.05
2018-09-25T09:02:23.980Z,102170.34
2018-09-25T09:04:58.427Z,102173.33
2018-09-25T09:07:32.900Z,102178.69
2018-09-25T09:10:07.294Z,102184.50
2018-09-25T09:12:41.716Z,102179.55
2018-09-25T09:15:16.048Z,102190.73
2018-09-25T09:17:50.545Z,102185.80
2018-09-25T09:20:24.813Z,102184.03
2018-09-25T09:22:59.116Z,102187.27
2018-09-25T09:25:33.685Z,102192.91
2018-09-25T09:28:09.517Z,102188.27
2018-09-25T09:30:43.935Z,102185.28
2018-09-25T09:33:18.240Z,102189.52
2018-09-25T09:35:52.712Z,102180.80
2018-09-25T09:38:27.002Z,102193.17
2018-09-25T09:41:01.604Z,102192.37
2018-09-25T09:43:36.112Z,102192.02
2018-09-25T09:46:10.348Z,102199.11
2018-09-25T09:48:44.646Z,102204.30
2018-09-25T09:51:18.979Z,102193.97
2018-09-25T09:53:53.262Z,102187.72
2018-09-25T09:56:27.578Z,102185.22
2018-09-25T09:59:01.906Z,102189.89
2018-09-25T10:01:36.175Z,102196.91
2018-09-25T10:04:10.623Z,102202.99
2018-09-25T10:06:45.117Z,102209.09
2018-09-25T10:09:19.554Z,102206.18
2018-09-25T10:11:53.920Z,102204.97
2018-09-25T10:14:28.288Z,102210.20
2018-09-25T10:17:02.600Z,102208.34
2018-09-25T10:19:37.044Z,102208.99
2018-09-25T10:22:11.497Z,102200.88
2018-09-25T10:24:45.812Z,102215.93
2018-09-25T10:27:20.206Z,102224.03
2018-09-25T10:29:54.562Z,102214.80
2018-09-25T10:32:29.975Z,102214.25
2018-09-25T10:35:05.056Z,102212.25
2018-09-25T10:37:39.488Z,102208.52
2018-09-25T10:40:13.805Z,102219.41
2018-09-25T10:42:48.112Z,102218.33
2018-09-25T10:45:22.588Z,102221.88
2018-09-25T10:47:56.893Z,102221.97
2018-09-25T10:50:31.344Z,102219.19
2018-09-25T10:53:05.818Z,102223.29
2018-09-25T10:55:40.141Z,102217.96
2018-09-25T10:58:14.484Z,102213.65
2018-09-25T11:00:48.930Z,102208.04
2018-09-25T11:03:23.237Z,102215.97
2018-09-25T11:05:57.525Z,102228.93
2018-09-25T11:08:31.793Z,102233.53
2018-09-25T11:11:06.232Z,102244.55
2018-09-25T11:13:40.537Z,102228.85
2018-09-25T11:16:14.889Z,102219.02
2018-09-25T11:18:49.295Z,102220.44
2018-09-25T11:21:23.707Z,102221.43
2018-09-25T11:23:58.112Z,102229.70
2018-09-25T11:26:32.498Z,102231.06
2018-09-25T11:29:06.870Z,102227.72
2018-09-25T11:31:41.272Z,102230.89
2018-09-25T11:34:15.700Z,102226.38
2018-09-25T11:36:51.584Z,102209.72
2018-09-25T11:39:27.212Z,102224.35
2018-09-25T11:42:01.667Z,102226.11
2018-09-25T11:44:36.087Z,102236.68
2018-09-25T11:47:10.537Z,102234.13
2018-09-25T11:49:44.981Z,102229.37
2018-09-25T11:52:19.394Z,102222.28
2018-09-25T11:54:53.766Z,102217.03
2018-09-25T11:57:28.085Z,102218.20
2018-09-25T12:00:02.539Z,102224.73
2018-09-25T12:02:38.479Z,102221.25
2018-09-25T12:05:13.426Z,102227.39
2018-09-25T12:07:47.920Z,102220.95
2018-09-25T12:10:22.248Z,102219.55
2018-09-25T12:12:56.535Z,102206.59
2018-09-25T12:15:30.861Z,102207.89
2018-09-25T12:18:05.299Z,102199.41
2018-09-25T12:20:39.753Z,102199.67
2018-09-25T12:23:14.290Z,102204.08
2018-09-25T12:25:48.796Z,102204.61
2018-09-25T12:28:23.370Z,102208.86
2018-09-25T12:30:57.794Z,102205.78
2018-09-25T12:33:32.112Z,102209.89
2018-09-25T12:36:07.701Z,102216.09
2018-09-25T12:38:42.168Z,102217.06
2018-09-25T12:41:16.481Z,102203.58
2018-09-25T12:43:50.963Z,102209.17
2018-09-25T12:46:25.392Z,102203.79
2018-09-25T12:48:59.864Z,102201.55
2018-09-25T12:51:34.211Z,102200.26
2018-09-25T12:54:08.515Z,102205.80
2018-09-25T12:56:42.841Z,102212.79
2018-09-25T12:59:17.370Z,102210.61
2018-09-25T13:01:51.823Z,102194.05
2018-09-25T13:04:26.204Z,102191.05
2018-09-25T13:07:00.792Z,102194.72
2018-09-25T13:09:36.149Z,102196.09
2018-09-25T13:12:10.426Z,102202.33
2018-09-25T13:14:44.850Z,102202.52
2018-09-25T13:17:19.337Z,102194.88
2018-09-25T13:19:53.742Z,102205.33
2018-09-25T13:22:28.376Z,102216.41
2018-09-25T13:25:03.396Z,102215.27
2018-09-25T13:27:37.732Z,102211.30
2018-09-25T13:30:12.153Z,102211.98
2018-09-25T13:32:46.604Z,102213.61
2018-09-25T13:35:20.899Z,102212.40
2018-09-25T13:37:55.133Z,102201.03
2018-09-25T13:40:29.572Z,102208.22
2018-09-25T13:43:04.027Z,102203.00
2018-09-25T13:45:38.450Z,102208.03
2018-09-25T13:48:12.771Z,102189.72
2018-09-25T13:50:47.089Z,102177.37
2018-09-25T13:53:21.578Z,102172.34
2018-09-25T13:55:56.093Z,102168.86
2018-09-25T13:58:30.378Z,102164.39
2018-09-25T14:01:04.749Z,102177.73
2018-09-25T14:03:39.214Z,102167.86
2018-09-25T14:06:13.602Z,102172.98
2018-09-25T14:08:47.951Z,102169.25
2018-09-25T14:11:22.255Z,102171.50
2018-09-25T14:13:56.880Z,102167.58
2018-09-25T14:16:31.132Z,102161.27
2018-09-25T14:19:05.443Z,102166.75
2018-09-25T14:21:40.038Z,102163.66
2018-09-25T14:24:14.372Z,102160.48
2018-09-25T14:26:48.835Z,102159.47
2018-09-25T14:29:23.745Z,102160.66
2018-09-25T14:31:58.380Z,102152.23
2018-09-25T14:34:32.650Z,102152.50
2018-09-25T14:37:08.253Z,102150.86
2018-09-25T14:39:42.803Z,102145.88
2018-09-25T14:42:17.178Z,102151.02
2018-09-25T14:44:51.609Z,102146.83
2018-09-25T14:47:25.940Z,102155.13
2018-09-25T14:50:00.389Z,102165.47
2018-09-25T14:52:34.706Z,102162.56
2018-09-25T14:55:09.191Z,102157.05
2018-09-25T14:57:43.523Z,102155.69
2018-09-25T15:00:18.019Z,102147.02
2018-09-25T15:02:52.345Z,102156.09
2018-09-25T15:05:26.671Z,102157.34
2018-09-25T15:08:00.982Z,102167.70
2018-09-25T15:10:35.281Z,102168.70
2018-09-25T15:13:09.512Z,102170.49
2018-09-25T15:15:43.830Z,102166.16
2018-09-25T15:18:18.406Z,102164.18
2018-09-25T15:20:52.832Z,102156.64
2018-09-25T15:23:27.221Z,102151.98
2018-09-25T15:26:02.238Z,102146.31
2018-09-25T15:28:37.724Z,102145.78
2018-09-25T15:31:12.466Z,102137.59
2018-09-25T15:33:46.876Z,102144.05
2018-09-25T15:36:21.137Z,102156.87
2018-09-25T15:38:55.547Z,102148.58
2018-09-25T15:41:30.177Z,102143.75
2018-09-25T15:44:04.497Z,102145.08
2018-09-25T15:46:38.924Z,102149.63
2018-09-25T15:49:13.618Z,102161.61
2018-09-25T15:51:48.098Z,102161.27
2018-09-25T15:54:23.627Z,102164.55
2018-09-25T15:56:57.962Z,102166.69
2018-09-25T15:59:32.364Z,102163.23
2018-09-25T16:02:06.757Z,102172.93
2018-09-25T16:04:41.246Z,102174.28
2018-09-25T16:07:15.668Z,102172.55
2018-09-25T16:09:49.928Z,102167.63
2018-09-25T16:12:24.349Z,102172.13
2018-09-25T16:14:58.990Z,102172.36
2018-09-25T16:17:36.328Z,102177.00
2018-09-25T16:20:10.770Z,102183.59
2018-09-25T16:22:45.132Z,102188.97
2018-09-25T16:25:19.626Z,102193.25
2018-09-25T16:27:54.125Z,102202.14
2018-09-25T16:30:28.580Z,102198.89
2018-09-25T16:33:02.948Z,102207.97
2018-09-25T16:35:38.560Z,102206.31
2018-09-25T16:38:12.937Z,102211.95
2018-09-25T16:40:47.338Z,102212.13
2018-09-25T16:43:21.805Z,102210.31
2018-09-25T16:45:56.175Z,102203.09
2018-09-25T16:48:30.582Z,102208.73
2018-09-25T16:51:05.088Z,102216.83
2018-09-25T16:53:39.284Z,102215.29
2018-09-25T16:56:13.910Z,102217.61
2018-09-25T16:58:48.285Z,102229.59
2018-09-25T17:01:22.740Z,102229.59
2018-09-25T17:03:57.226Z,102236.03
2018-09-25T17:06:31.638Z,102235.09
2018-09-25T17:09:05.968Z,102239.09
2018-09-25T17:11:40.446Z,102242.19
2018-09-25T17:14:14.853Z,102238.94
2018-09-25T17:16:49.246Z,102239.80
2018-09-25T17:19:23.504Z,102238.48
2018-09-25T17:21:57.821Z,102238.50
2018-09-25T17:24:32.294Z,102236.52
2018-09-25T17:27:06.739Z,102234.15
2018-09-25T17:29:41.126Z,102237.55
2018-09-25T17:32:15.502Z,102246.05
2018-09-25T17:34:49.811Z,102253.11
2018-09-25T17:37:24.140Z,102258.62
2018-09-25T17:39:58.433Z,102252.59
2018-09-25T17:42:32.847Z,102252.79
2018-09-25T17:45:07.235Z,102260.44
2018-09-25T17:47:41.681Z,102265.30
2018-09-25T17:50:16.069Z,102267.26
2018-09-25T17:52:50.546Z,102265.34
2018-09-25T17:55:24.927Z,102270.42
2018-09-25T17:57:59.358Z,102275.20
2018-09-25T18:00:33.701Z,102275.36
2018-09-25T18:03:08.886Z,102278.77
2018-09-25T18:05:43.276Z,102282.14
2018-09-25T18:08:17.753Z,102289.64
2018-09-25T18:10:52.144Z,102286.66
2018-09-25T18:13:26.456Z,102297.31
2018-09-25T18:16:00.811Z,102292.92
2018-09-25T18:18:35.457Z,102296.38
2018-09-25T18:21:09.875Z,102292.30
2018-09-25T18:23:44.328Z,102303.02
2018-09-25T18:26:18.729Z,102302.66
2018-09-25T18:28:53.303Z,102312.73
2018-09-25T18:31:27.767Z,102308.72
2018-09-25T18:34:02.087Z,102310.56
2018-09-25T18:36:36.445Z,102309.25
2018-09-25T18:39:12.473Z,102311.25
2018-09-25T18:41:46.932Z,102312.08
2018-09-25T18:44:21.302Z,102317.84
2018-09-25T18:46:55.708Z,102323.52
2018-09-25T18:49:30.211Z,102329.86
2018-09-25T18:52:04.442Z,102335.00
2018-09-25T18:54:39.378Z,102333.37
2018-09-25T18:57:13.762Z,102341.46
2018-09-25T18:59:48.142Z,102338.90
2018-09-25T19:02:22.630Z,102337.67
2018-09-25T19:04:57.068Z,102338.37
2018-09-25T19:07:31.584Z,102332.33
2018-09-25T19:10:05.856Z,102333.86
2018-09-25T19:12:40.421Z,102333.05
2018-09-25T19:15:14.937Z,102338.07
2018-09-25T19:17:49.459Z,102342.99
2018-09-25T19:20:23.839Z,102341.86
2018-09-25T19:22:58.253Z,102346.58
2018-09-25T19:25:32.518Z,102344.19
2018-09-25T19:28:06.869Z,102342.45
2018-09-25T19:30:41.174Z,102348.69
2018-09-25T19:33:15.528Z,102349.20
2018-09-25T19:35:50.091Z,102350.02
2018-09-25T19:38:24.602Z,102352.58
2018-09-25T19:40:58.909Z,102350.82
2018-09-25T19:43:33.287Z,102343.31
2018-09-25T19:46:07.854Z,102342.66
2018-09-25T19:48:42.561Z,102344.51
2018-09-25T19:51:16.851Z,102339.66
2018-09-25T19:53:51.182Z,102339.34
2018-09-25T19:56:25.628Z,102343.66
2018-09-25T19:59:03.932Z,102344.55
2018-09-25T20:01:38.337Z,102350.97
2018-09-25T20:04:12.681Z,102341.78
2018-09-25T20:06:47.091Z,102336.67
2018-09-25T20:09:21.386Z,102337.48
2018-09-25T20:11:55.867Z,102338.41
2018-09-25T20:14:30.385Z,102335.12
2018-09-25T20:17:04.817Z,102338.64
2018-09-25T20:19:39.233Z,102338.30
2018-09-25T20:22:13.651Z,102340.41
2018-09-25T20:24:47.945Z,102341.55
2018-09-25T20:27:22.349Z,102335.31
2018-09-25T20:29:56.610Z,102341.63
2018-09-25T20:32:30.918Z,102337.16
2018-09-25T20:35:05.552Z,102348.08
2018-09-25T20:37:40.060Z,102350.48
2018-09-25T20:40:15.881Z,102352.21
2018-09-25T20:42:50.289Z,102359.64
2018-09-25T20:45:24.752Z,102353.50
2018-09-25T20:47:59.035Z,102354.53
2018-09-25T20:50:33.489Z,102355.39
2018-09-25T20:53:07.848Z,102355.28
2018-09-25T20:55:42.327Z,102352.35
2018-09-25T20:58:16.745Z,102346.66
2018-09-25T21:00:50.971Z,102346.55
2018-09-25T21:03:25.276Z,102349.34
2018-09-25T21:05:59.706Z,102345.45
2018-09-25T21:08:34.102Z,102344.48
2018-09-25T21:11:08.595Z,102350.80
2018-09-25T21:13:42.837Z,102344.70
2018-09-25T21:16:17.126Z,102344.19
2018-09-25T21:18:51.443Z,102351.95
2018-09-25T21:21:26.202Z,102350.61
2018-09-25T21:24:00.571Z,102345.82
2018-09-25T21:26:34.825Z,102341.08
2018-09-25T21:29:09.322Z,102346.05
2018-09-25T21:31:43.930Z,102354.98
2018-09-25T21:34:18.242Z,102353.74
2018-09-25T21:36:52.520Z,102349.88
2018-09-25T21:39:27.183Z,102352.55
2018-09-25T21:42:01.684Z,102353.05
2018-09-25T21:44:35.981Z,102353.88
2018-09-25T21:47:10.357Z,102358.89
2018-09-25T21:49:44.825Z,102362.56
2018-09-25T21:52:19.108Z,102366.73
2018-09-25T21:54:53.516Z,102367.70
2018-09-25T21:57:28.201Z,102359.90
2018-09-25T22:00:02.633Z,102364.28
2018-09-25T22:02:37.091Z,102362.02
2018-09-25T22:05:11.448Z,102346.11
2018-09-25T22:07:45.867Z,102347.26
2018-09-25T22:10:20.289Z,102347.95
2018-09-25T22:12:54.758Z,102344.90
2018-09-25T22:15:29.016Z,102341.00
2018-09-25T22:18:03.393Z,102346.92
2018-09-25T22:20:37.824Z,102350.91
2018-09-25T22:23:12.549Z,102349.80
2018-09-25T22:25:47.007Z,102354.17
2018-09-25T22:28:21.390Z,102353.34
2018-09-25T22:30:55.700Z,102339.59
2018-09-25T22:33:29.962Z,102343.97
2018-09-25T22:36:04.373Z,102347.63
2018-09-25T22:38:38.782Z,102350.72
2018-09-25T22:41:13.149Z,102351.00
2018-09-25T22:43:47.600Z,102354.86
2018-09-25T22:46:22.027Z,102350.03
2018-09-25T22:48:56.493Z,102350.16
2018-09-25T22:51:31.007Z,102344.41
2018-09-25T22:54:05.388Z,102337.81
2018-09-25T22:56:39.913Z,102338.94
2018-09-25T22:59:14.274Z,102336.05
2018-09-25T23:01:48.632Z,102334.21
2018-09-25T23:04:23.012Z,102328.37
2018-09-25T23:06:57.314Z,102329.89
2018-09-25T23:09:31.733Z,102333.19
2018-09-25T23:12:06.041Z,102341.68
2018-09-25T23:14:40.388Z,102335.18
2018-09-25T23:17:14.814Z,102336.89
2018-09-25T23:19:49.544Z,102329.61
2018-09-25T23:22:23.805Z,102321.00
2018-09-25T23:24:58.203Z,102329.05
2018-09-25T23:27:32.619Z,102341.05
2018-09-25T23:30:11.536Z,102346.93
2018-09-25T23:32:45.845Z,102342.42
2018-09-25T23:35:20.321Z,102345.72
2018-09-25T23:37:54.623Z,102335.01
2018-09-25T23:40:30.790Z,102332.86
2018-09-25T23:43:05.121Z,102327.50
2018-09-25T23:45:41.805Z,102318.80
2018-09-25T23:48:14.953Z,102322.37
2018-09-25T23:50:48.640Z,102316.59
2018-09-25T23:53:22.940Z,102303.38
2018-09-25T23:55:57.087Z,102298.11
2018-09-25T23:58:47.607Z,102301.50
